createdAt,value
2022-12-03T00:00:12.586Z,-0.20
2022-12-03T00:02:40.195Z,-0.30
2022-12-03T00:05:07.122Z,-0.30
2022-12-03T00:07:33.856Z,-0.30
2022-12-03T00:10:00.517Z,-0.30
2022-12-03T00:12:27.098Z,0.00
2022-12-03T00:14:53.882Z,-0.30
2022-12-03T00:17:20.701Z,-0.30
2022-12-03T00:19:47.302Z,-0.50
2022-12-03T00:22:13.867Z,-0.40
2022-12-03T00:24:40.467Z,-0.40
2022-12-03T00:27:07.004Z,-0.40
2022-12-03T00:29:33.558Z,-0.40
2022-12-03T00:32:00.143Z,-0.30
2022-12-03T00:34:26.690Z,-0.30
2022-12-03T00:36:53.331Z,-0.30
2022-12-03T00:39:19.899Z,-0.30
2022-12-03T00:41:46.462Z,-0.30
2022-12-03T00:44:13.156Z,-0.30
2022-12-03T00:46:39.814Z,-0.30
2022-12-03T00:49:09.158Z,-0.20
2022-12-03T00:51:37.721Z,-0.30
2022-12-03T00:54:06.378Z,-0.30
2022-12-03T00:56:33.486Z,-0.30
2022-12-03T00:59:00.807Z,-0.30
2022-12-03T01:01:27.411Z,-0.30
2022-12-03T01:03:53.991Z,-0.30
2022-12-03T01:06:20.538Z,-0.30
2022-12-03T01:08:47.110Z,-0.40
2022-12-03T01:11:32.295Z,-0.40
2022-12-03T01:13:58.842Z,-0.40
2022-12-03T01:16:25.505Z,-0.40
2022-12-03T01:18:52.843Z,-0.30
2022-12-03T01:21:19.673Z,-0.30
2022-12-03T01:23:46.733Z,-0.30
2022-12-03T01:26:13.421Z,-0.30
2022-12-03T01:28:41.894Z,-0.30
2022-12-03T01:31:27.545Z,-0.30
2022-12-03T01:33:54.194Z,-0.30
2022-12-03T01:36:21.049Z,-0.20
2022-12-03T01:38:48.757Z,-0.20
2022-12-03T01:41:19.339Z,-0.20
2022-12-03T01:43:46.213Z,-0.20
2022-12-03T01:46:16.408Z,-0.10
2022-12-03T01:48:43.365Z,0.70
2022-12-03T01:51:09.955Z,-0.20
2022-12-03T01:53:36.598Z,-0.20
2022-12-03T01:56:03.314Z,-0.20
2022-12-03T01:58:30.079Z,-0.20
2022-12-03T02:01:01.504Z,-0.30
2022-12-03T02:03:28.426Z,-0.30
2022-12-03T02:05:55.140Z,-0.30
2022-12-03T02:08:32.601Z,-0.30
2022-12-03T02:11:08.886Z,-0.30
2022-12-03T02:13:35.888Z,-0.30
2022-12-03T02:16:03.776Z,-0.30
2022-12-03T02:18:30.437Z,-0.50
2022-12-03T02:21:05.701Z,-0.30
2022-12-03T02:23:39.974Z,-0.40
2022-12-03T02:26:06.926Z,-0.40
2022-12-03T02:28:33.577Z,-0.40
2022-12-03T02:31:00.226Z,-0.40
2022-12-03T02:33:26.961Z,-0.40
2022-12-03T02:35:53.611Z,-0.40
2022-12-03T02:38:22.873Z,-0.40
2022-12-03T02:40:53.512Z,-0.30
2022-12-03T02:43:20.494Z,-0.30
2022-12-03T02:45:50.519Z,-0.20
2022-12-03T02:48:25.653Z,-0.20
2022-12-03T02:50:55.037Z,-0.20
2022-12-03T02:53:27.467Z,-0.20
2022-12-03T02:55:56.035Z,-0.10
2022-12-03T02:58:24.665Z,-0.10
2022-12-03T03:00:53.596Z,-0.10
2022-12-03T03:03:22.027Z,-0.10
2022-12-03T03:05:49.338Z,-0.10
2022-12-03T03:08:17.709Z,-0.20
2022-12-03T03:10:45.474Z,-0.20
2022-12-03T03:13:16.139Z,-0.30
2022-12-03T03:15:43.436Z,-0.40
2022-12-03T03:18:11.852Z,-0.30
2022-12-03T03:20:39.553Z,-0.30
2022-12-03T03:23:12.197Z,-0.30
2022-12-03T03:25:41.114Z,-0.10
2022-12-03T03:28:08.018Z,-0.30
2022-12-03T03:30:35.780Z,-0.30
2022-12-03T03:33:02.365Z,-0.60
2022-12-03T03:35:28.977Z,-0.30
2022-12-03T03:37:58.603Z,-0.30
2022-12-03T03:40:26.335Z,-0.30
2022-12-03T03:42:53.104Z,-0.20
2022-12-03T03:45:25.462Z,-0.20
2022-12-03T03:47:56.014Z,-0.20
2022-12-03T03:50:22.961Z,-0.20
2022-12-03T03:52:49.562Z,-0.20
2022-12-03T03:55:16.149Z,-0.70
2022-12-03T03:57:42.696Z,-0.30
2022-12-03T04:00:10.348Z,-0.40
2022-12-03T04:02:37.617Z,-0.30
2022-12-03T04:05:04.809Z,-0.30
2022-12-03T04:07:31.510Z,-0.40
2022-12-03T04:09:58.142Z,-0.40
2022-12-03T04:12:53.797Z,-0.30
2022-12-03T04:15:20.346Z,-0.40
2022-12-03T04:18:07.623Z,-0.40
2022-12-03T04:20:34.198Z,-0.30
2022-12-03T04:23:00.760Z,0.00
2022-12-03T04:25:46.026Z,-0.30
2022-12-03T04:28:35.949Z,-0.30
2022-12-03T04:31:25.634Z,-0.70
2022-12-03T04:34:11.533Z,-0.30
2022-12-03T04:36:38.568Z,-0.30
2022-12-03T04:39:05.584Z,-0.30
2022-12-03T04:41:32.182Z,-0.30
2022-12-03T04:44:17.236Z,-0.20
2022-12-03T04:46:43.854Z,-0.30
2022-12-03T04:49:10.388Z,-0.40
2022-12-03T04:51:36.997Z,-0.80
2022-12-03T04:54:03.735Z,-0.40
2022-12-03T04:56:30.381Z,-0.30
2022-12-03T04:58:56.928Z,-0.30
2022-12-03T05:01:23.562Z,-0.30
2022-12-03T05:03:50.280Z,-0.30
2022-12-03T05:06:16.961Z,-0.80
2022-12-03T05:08:43.532Z,-0.30
2022-12-03T05:11:10.102Z,-0.30
2022-12-03T05:13:36.768Z,-0.40
2022-12-03T05:16:03.446Z,-0.40
2022-12-03T05:18:30.015Z,-0.50
2022-12-03T05:20:56.631Z,-0.50
2022-12-03T05:23:23.363Z,-0.80
2022-12-03T05:25:50.003Z,-0.40
2022-12-03T05:28:16.769Z,-0.40
2022-12-03T05:30:43.436Z,-0.30
2022-12-03T05:33:10.016Z,-0.30
2022-12-03T05:35:36.587Z,-0.40
2022-12-03T05:38:03.399Z,-0.30
2022-12-03T05:40:30.180Z,-0.20
2022-12-03T05:42:57.527Z,-0.20
2022-12-03T05:45:26.208Z,-0.30
2022-12-03T05:47:54.650Z,-0.20
2022-12-03T05:50:23.129Z,-0.20
2022-12-03T05:52:50.293Z,-0.20
2022-12-03T05:55:17.170Z,-0.20
2022-12-03T05:57:44.148Z,-0.20
2022-12-03T06:00:17.371Z,-0.20
2022-12-03T06:02:47.276Z,-0.30
2022-12-03T06:05:15.377Z,-0.30
2022-12-03T06:07:42.867Z,-0.40
2022-12-03T06:10:11.799Z,-0.40
2022-12-03T06:12:38.377Z,-0.40
2022-12-03T06:15:05.535Z,-0.40
2022-12-03T06:17:32.167Z,-0.40
2022-12-03T06:19:58.795Z,-0.30
2022-12-03T06:22:25.655Z,-0.40
2022-12-03T06:24:52.583Z,-0.30
2022-12-03T06:27:19.303Z,-0.30
2022-12-03T06:29:46.109Z,-0.20
2022-12-03T06:32:12.655Z,-0.30
2022-12-03T06:34:39.214Z,-0.20
2022-12-03T06:37:06.054Z,-0.30
2022-12-03T06:39:32.829Z,-0.30
2022-12-03T06:41:59.434Z,-0.30
2022-12-03T06:44:26.021Z,-0.30
2022-12-03T06:46:52.679Z,-0.60
2022-12-03T06:49:19.337Z,-0.30
2022-12-03T06:51:45.906Z,-0.30
2022-12-03T06:54:12.486Z,-0.30
2022-12-03T06:56:44.844Z,-0.30
2022-12-03T06:59:12.229Z,-0.30
2022-12-03T07:01:38.851Z,-0.40
2022-12-03T07:04:05.762Z,-0.40
2022-12-03T07:06:32.369Z,-0.10
2022-12-03T07:08:58.969Z,-0.40
2022-12-03T07:11:31.766Z,-0.30
2022-12-03T07:14:05.155Z,-0.50
2022-12-03T07:16:32.593Z,-0.40
2022-12-03T07:18:59.247Z,-0.40
2022-12-03T07:21:25.858Z,-0.40
2022-12-03T07:23:52.447Z,-0.40
2022-12-03T07:26:19.256Z,-0.80
2022-12-03T07:28:48.218Z,-0.30
2022-12-03T07:31:15.107Z,-0.30
2022-12-03T07:33:42.198Z,-0.30
2022-12-03T07:36:09.542Z,-0.30
2022-12-03T07:38:36.302Z,-0.30
2022-12-03T07:41:03.336Z,-0.30
2022-12-03T07:43:29.909Z,-0.30
2022-12-03T07:45:56.497Z,-0.40
2022-12-03T07:48:23.075Z,-0.50
2022-12-03T07:50:49.689Z,-0.50
2022-12-03T07:53:16.328Z,-0.60
2022-12-03T07:55:42.888Z,-0.30
2022-12-03T07:58:09.599Z,-0.60
2022-12-03T08:00:36.293Z,-0.70
2022-12-03T08:03:03.023Z,-0.80
2022-12-03T08:05:29.865Z,-0.80
2022-12-03T08:07:56.810Z,-0.80
2022-12-03T08:10:25.463Z,-0.70
2022-12-03T08:12:53.581Z,-0.70
2022-12-03T08:15:26.540Z,-0.70
2022-12-03T08:17:59.021Z,-0.80
2022-12-03T08:20:29.135Z,-0.70
2022-12-03T08:22:57.105Z,-0.80
2022-12-03T08:25:25.461Z,-0.80
2022-12-03T08:27:55.581Z,-0.20
2022-12-03T08:30:23.065Z,-0.80
2022-12-03T08:32:50.973Z,-0.70
2022-12-03T08:35:26.276Z,-0.70
2022-12-03T08:38:09.919Z,-0.70
2022-12-03T08:40:40.796Z,-0.70
2022-12-03T08:43:19.087Z,-0.70
2022-12-03T08:45:45.833Z,-0.60
2022-12-03T08:48:18.467Z,-0.60
2022-12-03T08:50:45.650Z,-0.50
2022-12-03T08:53:33.968Z,-0.50
2022-12-03T08:56:03.971Z,-0.90
2022-12-03T08:58:39.394Z,-0.40
2022-12-03T09:01:30.782Z,-0.40
2022-12-03T09:04:19.624Z,-0.40
2022-12-03T09:06:46.419Z,-0.30
2022-12-03T09:09:13.068Z,-0.20
2022-12-03T09:11:39.902Z,-0.20
2022-12-03T09:14:06.428Z,-0.20
2022-12-03T09:16:33.105Z,-0.10
2022-12-03T09:18:59.810Z,-0.10
2022-12-03T09:21:26.448Z,0.00
2022-12-03T09:23:53.087Z,-0.10
2022-12-03T09:26:19.647Z,-0.10
2022-12-03T09:28:48.141Z,0.00
2022-12-03T09:31:15.591Z,0.00
2022-12-03T09:33:43.141Z,0.00
2022-12-03T09:36:09.730Z,0.10
2022-12-03T09:38:36.320Z,0.20
2022-12-03T09:41:03.057Z,0.20
2022-12-03T09:44:02.847Z,0.20
2022-12-03T09:46:20.802Z,0.30
2022-12-03T09:48:47.679Z,0.30
2022-12-03T09:51:14.781Z,0.50
2022-12-03T09:53:41.753Z,0.50
2022-12-03T09:56:20.321Z,0.50
2022-12-03T09:58:47.336Z,0.60
2022-12-03T10:01:15.864Z,0.60
2022-12-03T10:03:47.116Z,0.60
2022-12-03T10:06:23.520Z,0.50
2022-12-03T10:08:54.976Z,0.50
2022-12-03T10:11:24.677Z,0.50
2022-12-03T10:13:52.673Z,0.60
2022-12-03T10:16:20.823Z,0.50
2022-12-03T10:18:50.462Z,0.60
2022-12-03T10:21:32.244Z,0.50
2022-12-03T10:24:16.893Z,0.40
2022-12-03T10:26:44.776Z,0.90
2022-12-03T10:29:33.119Z,0.40
2022-12-03T10:32:06.342Z,0.40
2022-12-03T10:34:38.440Z,0.40
2022-12-03T10:37:10.929Z,0.40
2022-12-03T10:39:56.271Z,0.30
2022-12-03T10:42:24.684Z,0.30
2022-12-03T10:45:14.997Z,0.30
2022-12-03T10:47:43.059Z,0.20
2022-12-03T10:50:20.112Z,0.20
2022-12-03T10:52:47.894Z,0.20
2022-12-03T10:55:15.636Z,0.10
2022-12-03T10:57:45.628Z,0.10
2022-12-03T11:00:18.377Z,0.10
2022-12-03T11:02:49.251Z,0.10
2022-12-03T11:05:26.596Z,0.10
2022-12-03T11:07:53.512Z,0.10
2022-12-03T11:10:20.519Z,0.20
2022-12-03T11:13:24.631Z,0.20
2022-12-03T11:15:51.271Z,0.10
2022-12-03T11:18:44.412Z,0.00
2022-12-03T11:21:13.565Z,0.20
2022-12-03T11:23:46.188Z,0.00
2022-12-03T11:26:18.564Z,0.00
2022-12-03T11:28:45.867Z,0.00
2022-12-03T11:31:57.373Z,0.00
2022-12-03T11:34:31.451Z,0.00
2022-12-03T11:37:10.463Z,0.10
2022-12-03T11:39:49.468Z,0.10
2022-12-03T11:42:27.810Z,0.10
2022-12-03T11:45:06.333Z,0.20
2022-12-03T11:47:45.342Z,0.20
2022-12-03T11:50:17.882Z,0.30
2022-12-03T11:52:46.603Z,0.20
2022-12-03T11:55:32.016Z,0.20
2022-12-03T11:58:04.708Z,0.20
2022-12-03T12:00:31.475Z,0.20
2022-12-03T12:02:58.774Z,0.20
2022-12-03T12:05:32.615Z,0.20
2022-12-03T12:08:01.511Z,0.20
2022-12-03T12:10:39.240Z,0.00
2022-12-03T12:13:06.733Z,0.10
2022-12-03T12:15:39.631Z,0.00
2022-12-03T12:18:41.668Z,0.10
2022-12-03T12:21:47.994Z,0.00
2022-12-03T12:24:41.172Z,0.00
2022-12-03T12:27:10.718Z,-0.10
2022-12-03T12:29:39.186Z,-0.20
2022-12-03T12:32:08.982Z,-0.10
2022-12-03T12:35:16.977Z,0.00
2022-12-03T12:38:00.707Z,0.00
2022-12-03T12:40:30.286Z,0.00
2022-12-03T12:43:09.934Z,0.10
2022-12-03T12:45:41.699Z,0.10
2022-12-03T12:48:19.168Z,0.00
2022-12-03T12:50:57.917Z,0.00
2022-12-03T12:53:35.475Z,0.10
2022-12-03T12:56:23.466Z,0.10
2022-12-03T12:58:50.973Z,0.10
2022-12-03T13:01:33.229Z,0.10
2022-12-03T13:03:59.895Z,0.10
2022-12-03T13:06:29.012Z,0.40
2022-12-03T13:08:56.811Z,0.10
2022-12-03T13:11:37.047Z,0.10
2022-12-03T13:14:31.775Z,0.10
2022-12-03T13:17:18.640Z,0.10
2022-12-03T13:20:01.946Z,0.10
2022-12-03T13:22:31.786Z,0.10
2022-12-03T13:25:03.881Z,0.10
2022-12-03T13:27:30.665Z,0.10
2022-12-03T13:30:09.207Z,0.00
2022-12-03T13:32:41.210Z,0.00
2022-12-03T13:35:35.967Z,0.00
2022-12-03T13:38:09.802Z,0.00
2022-12-03T13:40:36.963Z,-0.10
2022-12-03T13:43:15.886Z,-0.10
2022-12-03T13:45:44.983Z,-0.10
2022-12-03T13:48:27.142Z,0.00
2022-12-03T13:50:54.340Z,0.00
2022-12-03T13:53:32.586Z,0.00
2022-12-03T13:56:30.929Z,0.00
2022-12-03T13:59:00.210Z,0.00
2022-12-03T14:01:28.423Z,0.10
2022-12-03T14:03:55.122Z,0.10
2022-12-03T14:06:21.789Z,0.10
2022-12-03T14:08:48.454Z,0.20
2022-12-03T14:11:33.875Z,0.20
2022-12-03T14:14:01.021Z,0.30
2022-12-03T14:16:27.731Z,0.20
2022-12-03T14:18:54.413Z,0.20
2022-12-03T14:21:21.119Z,-0.30
2022-12-03T14:23:47.739Z,0.10
2022-12-03T14:26:14.315Z,0.10
2022-12-03T14:28:40.867Z,0.00
2022-12-03T14:31:07.442Z,0.00
2022-12-03T14:33:34.081Z,-0.10
2022-12-03T14:36:00.659Z,-0.10
2022-12-03T14:38:27.251Z,-0.10
2022-12-03T14:40:53.988Z,-0.10
2022-12-03T14:43:20.569Z,-0.10
2022-12-03T14:45:47.184Z,-0.20
2022-12-03T14:48:13.745Z,-0.10
2022-12-03T14:50:40.409Z,-0.10
2022-12-03T14:53:06.959Z,-0.20
2022-12-03T14:55:33.616Z,-0.20
2022-12-03T14:58:00.219Z,-0.10
2022-12-03T15:00:26.792Z,-0.10
2022-12-03T15:02:53.407Z,-0.10
2022-12-03T15:05:27.919Z,-0.10
2022-12-03T15:07:55.089Z,-0.10
2022-12-03T15:10:21.711Z,-0.10
2022-12-03T15:12:48.437Z,0.00
2022-12-03T15:15:15.086Z,0.00
2022-12-03T15:17:41.817Z,-0.10
2022-12-03T15:20:08.917Z,0.00
2022-12-03T15:22:35.441Z,-0.10
2022-12-03T15:25:03.396Z,-0.60
2022-12-03T15:27:29.998Z,-0.20
2022-12-03T15:29:56.742Z,-0.20
2022-12-03T15:32:23.526Z,-0.20
2022-12-03T15:34:51.321Z,-0.20
2022-12-03T15:37:18.261Z,-0.30
2022-12-03T15:39:48.361Z,-0.30
2022-12-03T15:42:15.621Z,-0.20
2022-12-03T15:44:42.211Z,-0.20
2022-12-03T15:47:08.940Z,-0.20
2022-12-03T15:49:35.477Z,-0.20
2022-12-03T15:52:02.194Z,-0.20
2022-12-03T15:54:28.761Z,-0.20
2022-12-03T15:56:57.512Z,-0.10
2022-12-03T15:59:24.439Z,-0.10
2022-12-03T16:01:51.170Z,-0.10
2022-12-03T16:04:17.864Z,-0.10
2022-12-03T16:06:44.401Z,-0.10
2022-12-03T16:09:10.985Z,-0.10
2022-12-03T16:11:37.581Z,0.00
2022-12-03T16:14:04.228Z,0.00
2022-12-03T16:16:30.828Z,-0.10
2022-12-03T16:18:57.505Z,-0.10
2022-12-03T16:21:27.046Z,-0.10
2022-12-03T16:23:54.453Z,0.00
2022-12-03T16:26:21.533Z,0.00
2022-12-03T16:28:48.356Z,-0.10
2022-12-03T16:31:14.978Z,0.00
2022-12-03T16:33:41.610Z,0.20
2022-12-03T16:36:08.509Z,0.10
2022-12-03T16:38:35.136Z,0.10
2022-12-03T16:41:02.166Z,0.10
2022-12-03T16:43:28.828Z,0.10
2022-12-03T16:46:02.789Z,0.10
2022-12-03T16:48:30.150Z,0.30
2022-12-03T16:50:56.886Z,0.00
2022-12-03T16:53:23.528Z,0.00
2022-12-03T16:55:50.068Z,0.00
2022-12-03T16:58:21.060Z,0.00
2022-12-03T17:00:48.841Z,0.00
2022-12-03T17:03:17.770Z,0.00
2022-12-03T17:05:45.485Z,0.10
2022-12-03T17:08:12.967Z,0.10
2022-12-03T17:10:39.860Z,0.00
2022-12-03T17:13:09.749Z,-0.10
2022-12-03T17:15:37.132Z,-0.10
2022-12-03T17:18:03.857Z,-0.10
2022-12-03T17:20:31.583Z,0.00
2022-12-03T17:22:59.333Z,0.00
2022-12-03T17:25:26.800Z,0.00
2022-12-03T17:27:53.518Z,-0.20
2022-12-03T17:30:20.690Z,0.10
2022-12-03T17:32:48.749Z,0.00
2022-12-03T17:35:15.349Z,0.00
2022-12-03T17:37:41.916Z,0.00
2022-12-03T17:40:11.561Z,0.00
2022-12-03T17:42:38.134Z,0.10
2022-12-03T17:45:05.688Z,0.00
2022-12-03T17:47:32.267Z,0.00
2022-12-03T17:49:58.887Z,-0.30
2022-12-03T17:52:25.466Z,0.00
2022-12-03T17:55:10.895Z,0.00
2022-12-03T17:57:39.240Z,0.10
2022-12-03T18:00:06.831Z,0.10
2022-12-03T18:02:33.390Z,0.10
2022-12-03T18:04:59.998Z,0.10
2022-12-03T18:07:26.870Z,0.10
2022-12-03T18:09:53.699Z,0.10
2022-12-03T18:12:20.476Z,0.10
2022-12-03T18:14:47.029Z,-0.10
2022-12-03T18:17:14.288Z,0.60
2022-12-03T18:19:40.884Z,0.30
2022-12-03T18:22:07.747Z,0.10
2022-12-03T18:24:34.623Z,0.10
2022-12-03T18:27:01.163Z,0.10
2022-12-03T18:29:27.734Z,0.10
2022-12-03T18:31:54.349Z,0.10
2022-12-03T18:34:20.970Z,0.20
2022-12-03T18:36:49.421Z,0.20
2022-12-03T18:39:36.653Z,0.20
2022-12-03T18:42:15.958Z,0.10
2022-12-03T18:44:49.306Z,0.10
2022-12-03T18:47:19.344Z,-0.10
2022-12-03T18:49:46.135Z,0.20
2022-12-03T18:52:14.567Z,0.20
2022-12-03T18:54:41.425Z,0.10
2022-12-03T18:57:08.396Z,0.30
2022-12-03T18:59:35.013Z,0.30
2022-12-03T19:02:01.687Z,0.30
2022-12-03T19:04:28.527Z,0.30
2022-12-03T19:06:55.206Z,0.20
2022-12-03T19:09:21.979Z,-0.50
2022-12-03T19:11:48.716Z,0.20
2022-12-03T19:14:15.319Z,0.20
2022-12-03T19:16:42.266Z,-0.10
2022-12-03T19:19:09.888Z,0.30
2022-12-03T19:21:36.944Z,0.30
2022-12-03T19:24:23.871Z,0.30
2022-12-03T19:26:54.409Z,0.20
2022-12-03T19:29:24.056Z,0.20
2022-12-03T19:31:51.689Z,0.20
2022-12-03T19:34:18.371Z,0.20
2022-12-03T19:36:45.497Z,0.50
2022-12-03T19:39:12.136Z,0.10
2022-12-03T19:41:39.414Z,0.30
2022-12-03T19:44:10.692Z,0.30
2022-12-03T19:46:37.696Z,0.30
2022-12-03T19:49:04.878Z,0.30
2022-12-03T19:51:35.776Z,0.30
2022-12-03T19:54:04.441Z,0.70
2022-12-03T19:56:31.302Z,0.40
2022-12-03T19:58:58.286Z,0.40
2022-12-03T20:01:27.739Z,0.40
2022-12-03T20:03:57.220Z,0.30
2022-12-03T20:06:26.477Z,0.30
2022-12-03T20:09:05.524Z,0.40
2022-12-03T20:11:33.482Z,0.40
2022-12-03T20:14:02.115Z,0.40
2022-12-03T20:16:29.593Z,0.40
2022-12-03T20:19:02.614Z,0.40
2022-12-03T20:21:31.487Z,0.30
2022-12-03T20:23:58.807Z,0.40
2022-12-03T20:26:26.091Z,0.40
2022-12-03T20:28:56.833Z,0.40
2022-12-03T20:31:26.143Z,0.40
2022-12-03T20:33:55.859Z,0.40
2022-12-03T20:36:23.314Z,0.40
2022-12-03T20:38:54.941Z,0.50
2022-12-03T20:41:21.908Z,0.40
2022-12-03T20:43:48.581Z,0.40
2022-12-03T20:46:29.281Z,0.40
2022-12-03T20:48:56.791Z,0.40
2022-12-03T20:51:30.002Z,0.50
2022-12-03T20:53:58.178Z,0.30
2022-12-03T20:56:31.335Z,0.40
2022-12-03T20:59:04.711Z,0.40
2022-12-03T21:01:31.360Z,0.30
2022-12-03T21:03:58.147Z,0.30
2022-12-03T21:06:27.722Z,0.30
2022-12-03T21:08:55.281Z,0.40
2022-12-03T21:11:24.900Z,0.40
2022-12-03T21:13:52.249Z,0.50
2022-12-03T21:16:39.462Z,0.50
2022-12-03T21:19:08.308Z,0.50
2022-12-03T21:21:35.635Z,0.50
2022-12-03T21:24:02.273Z,0.50
2022-12-03T21:26:29.437Z,0.50
2022-12-03T21:28:56.101Z,0.50
2022-12-03T21:31:25.805Z,0.50
2022-12-03T21:33:56.440Z,0.50
2022-12-03T21:36:23.786Z,0.50
2022-12-03T21:38:50.561Z,0.50
2022-12-03T21:41:17.683Z,0.50
2022-12-03T21:43:44.575Z,0.50
2022-12-03T21:47:09.406Z,0.50
2022-12-03T21:49:01.625Z,0.50
2022-12-03T21:51:28.258Z,0.50
2022-12-03T21:53:54.835Z,0.50
2022-12-03T21:56:21.463Z,0.50
2022-12-03T21:58:48.102Z,0.50
2022-12-03T22:01:20.966Z,0.40
2022-12-03T22:03:48.222Z,0.50
2022-12-03T22:06:15.769Z,0.50
2022-12-03T22:08:42.671Z,0.50
2022-12-03T22:11:12.358Z,0.60
2022-12-03T22:13:40.260Z,0.60
2022-12-03T22:16:09.325Z,0.40
2022-12-03T22:18:36.394Z,0.70
2022-12-03T22:21:05.331Z,0.70
2022-12-03T22:23:32.601Z,0.70
2022-12-03T22:26:01.654Z,0.80
2022-12-03T22:28:28.214Z,0.80
2022-12-03T22:30:55.166Z,0.80
2022-12-03T22:33:22.038Z,0.80
2022-12-03T22:35:59.656Z,0.80
2022-12-03T22:38:26.830Z,0.90
2022-12-03T22:40:53.630Z,0.80
2022-12-03T22:43:20.674Z,0.90
2022-12-03T22:45:47.381Z,0.80
2022-12-03T22:48:14.176Z,0.80
2022-12-03T22:50:45.368Z,0.80
2022-12-03T22:53:12.537Z,0.80
2022-12-03T22:55:39.688Z,0.80
2022-12-03T22:58:06.870Z,0.80
2022-12-03T23:00:37.725Z,0.80
2022-12-03T23:03:05.395Z,0.80
2022-12-03T23:05:36.382Z,0.80
2022-12-03T23:08:14.183Z,0.80
2022-12-03T23:10:43.448Z,0.80
2022-12-03T23:13:10.629Z,0.70
2022-12-03T23:15:37.545Z,0.70
2022-12-03T23:18:04.382Z,0.70
2022-12-03T23:20:31.004Z,0.70
2022-12-03T23:22:57.570Z,0.70
2022-12-03T23:25:24.146Z,0.70
2022-12-03T23:27:50.733Z,0.70
2022-12-03T23:30:17.494Z,0.80
2022-12-03T23:32:44.396Z,0.80
2022-12-03T23:35:12.134Z,0.90
2022-12-03T23:37:42.092Z,0.90
2022-12-03T23:40:09.070Z,0.80
2022-12-03T23:42:35.717Z,0.90
2022-12-03T23:45:02.355Z,0.90
2022-12-03T23:47:28.958Z,0.90
2022-12-03T23:49:55.715Z,0.90
2022-12-03T23:52:22.642Z,0.90
2022-12-03T23:54:49.215Z,0.90
2022-12-03T23:57:16.125Z,0.90
2022-12-03T23:59:43.576Z,1.00
